New Madison, Ohio
Current Conditions -  °F | °C
As of 2:56 PM on Wednesday 28 Jan 2015 (Local Time) from KDAY Reporting Station
Broken Clouds Broken Clouds  
Wind Chill: 20°   Ceiling: 25000
Heat Index: 29°   Visibility: 10mi
Dew Point: 16°   Wind: 10mph
Humidity: 58%   Direction: 140°SE
Pressure: 30.27"   Gusts: NA
Location:  39.97°N, 84.71°W
Report Text: KDAY 281956Z 14009KT 10SM FEW180 SCT210 BKN250 M02/M09 A3027 RMK AO2 SLP265 T10171089
Loading
Personal Weather Stations






























Interactive Weather Map New forecast layout! Learn more

10-Day Weather Forecast

Advertisements
Track Severe Weather on mobile